Time;durP1;ratioP1;P1;durP2;ratioP2;P2;SDS_P1;SDS_P2;PMS_P1;PMS_P2;Temp;Humidity;BMP_temperature;BMP_pressure;BME280_temperature;BME280_humidity;BME280_pressure;Samples;Min_cycle;Max_cycle;Signal;HPM_P1;HPM_P2
2022/08/25 00:00:41;;;;;;;;;10.50;10.50;;;;;28.50;37.01;100781.78;5094126;27;45735;-53
2022/08/25 00:03:06;;;;;;;;;12.00;12.00;;;;;28.46;36.57;100776.00;5077273;27;45369;-55
2022/08/25 00:05:32;;;;;;;;;14.75;14.75;;;;;28.42;37.15;100766.50;5060019;27;45311;-53
2022/08/25 00:07:58;;;;;;;;;10.25;10.25;;;;;28.43;37.21;100773.81;5083899;27;45422;-55
2022/08/25 00:10:23;;;;;;;;;14.75;12.25;;;;;28.54;36.44;100788.41;5072331;27;45758;-55
2022/08/25 00:12:49;;;;;;;;;10.25;10.25;;;;;28.52;36.87;100791.59;5093842;27;45523;-54
2022/08/25 00:15:14;;;;;;;;;12.00;12.00;;;;;28.51;36.65;100792.75;5094023;27;45344;-54
2022/08/25 00:17:40;;;;;;;;;14.50;13.75;;;;;28.51;36.89;100789.94;5094023;27;45835;-56
2022/08/25 00:20:08;;;;;;;;;10.00;8.75;;;;;28.23;37.11;100739.47;5093265;27;45458;-55
2022/08/25 00:22:33;;;;;;;;;11.60;10.40;;;;;28.47;37.12;100777.66;5077020;27;45527;-54
2022/08/25 00:24:59;;;;;;;;;13.50;13.50;;;;;28.50;36.40;100776.16;5076672;27;45489;-57
2022/08/25 00:27:24;;;;;;;;;8.50;8.50;;;;;28.28;36.38;100746.97;5094408;27;45405;-55
2022/08/25 00:29:50;;;;;;;;;7.50;7.50;;;;;28.40;36.91;100766.84;5093695;27;46492;-55
2022/08/25 00:32:17;;;;;;;;;10.75;10.75;;;;;28.43;36.95;100776.63;5076637;27;45362;-53
2022/08/25 00:34:42;;;;;;;;;10.00;10.00;;;;;28.39;36.89;100770.03;5094114;27;45824;-55
2022/08/25 00:37:08;;;;;;;;;12.00;10.50;;;;;28.41;37.32;100773.31;5076779;27;45389;-52
2022/08/25 00:39:34;;;;;;;;;11.75;11.75;;;;;28.40;37.24;100780.16;5076820;27;46160;-55
2022/08/25 00:41:59;;;;;;;;;14.00;12.75;;;;;28.33;37.25;100762.88;5076411;27;45368;-51
2022/08/25 00:44:26;;;;;;;;;12.00;11.00;;;;;28.26;37.09;100758.56;5094458;27;45287;-52
2022/08/25 00:46:55;;;;;;;;;11.00;10.80;;;;;28.08;37.70;100734.31;5077298;27;45636;-54
2022/08/25 00:49:29;;;;;;;;;13.40;11.80;;;;;28.17;36.98;100760.50;5102239;27;45930;-51
2022/08/25 00:52:02;;;;;;;;;12.20;11.00;;;;;28.24;37.31;100763.72;5076348;27;45366;-54
2022/08/25 00:54:39;;;;;;;;;13.40;11.00;;;;;28.11;37.48;100731.66;5113957;27;46183;-54
2022/08/25 00:57:06;;;;;;;;;12.80;12.00;;;;;28.19;37.45;100738.47;5093794;27;45402;-55
2022/08/25 00:59:31;;;;;;;;;13.60;12.40;;;;;28.25;37.83;100756.91;5096664;27;45394;-55
2022/08/25 01:01:57;;;;;;;;;11.50;10.50;;;;;28.19;37.48;100757.38;5093489;27;45475;-53
2022/08/25 01:04:23;;;;;;;;;11.20;9.60;;;;;28.16;37.61;100756.03;5093964;27;45494;-54
2022/08/25 01:06:48;;;;;;;;;8.75;8.75;;;;;28.16;37.47;100749.59;5114228;27;45285;-51
2022/08/25 01:09:14;;;;;;;;;12.75;12.25;;;;;28.03;37.59;100721.22;5094035;27;46630;-53
2022/08/25 01:11:40;;;;;;;;;14.00;13.75;;;;;28.15;37.18;100745.94;5093255;27;45405;-51
2022/08/25 01:14:06;;;;;;;;;11.00;11.00;;;;;28.12;37.75;100743.78;5089417;27;45533;-54
2022/08/25 01:16:35;;;;;;;;;10.50;10.50;;;;;28.16;37.68;100750.41;5096477;27;45511;-52
2022/08/25 01:19:01;;;;;;;;;12.80;12.80;;;;;28.13;37.28;100746.25;5079404;27;45776;-55
2022/08/25 01:21:28;;;;;;;;;9.75;9.75;;;;;27.91;37.92;100733.16;5095262;27;45335;-51
2022/08/25 01:23:54;;;;;;;;;11.20;11.20;;;;;28.10;37.44;100763.00;5113732;27;45285;-51
2022/08/25 01:26:30;;;;;;;;;10.20;10.20;;;;;28.07;37.80;100763.69;5097103;27;45897;-52
2022/08/25 01:31:41;;;;;;;;;9.20;9.20;;;;;27.86;38.02;100734.13;5101498;27;45392;-54
2022/08/25 01:34:06;;;;;;;;;10.00;10.00;;;;;27.90;38.27;100762.50;5117522;27;45489;-52
2022/08/25 01:36:32;;;;;;;;;9.75;9.75;;;;;27.90;37.88;100751.22;5117343;27;45305;-51
2022/08/25 01:38:58;;;;;;;;;12.25;11.50;;;;;27.90;38.11;100759.69;5096308;27;47679;-51
2022/08/25 01:41:35;;;;;;;;;9.00;9.00;;;;;27.94;38.46;100765.50;5098868;27;45342;-54
2022/08/25 01:44:06;;;;;;;;;11.80;11.20;;;;;27.78;37.67;100731.31;5096874;27;45415;-52
2022/08/25 01:46:32;;;;;;;;;9.20;9.20;;;;;27.77;38.54;100752.19;5117471;27;45447;-50
2022/08/25 01:48:58;;;;;;;;;15.25;12.50;;;;;27.69;37.92;100737.75;5116859;27;46875;-52
2022/08/25 01:51:24;;;;;;;;;12.00;11.60;;;;;27.87;37.78;100754.72;5082823;27;45395;-53
2022/08/25 01:53:49;;;;;;;;;13.00;13.00;;;;;27.82;38.32;100754.88;5099540;27;45456;-52
2022/08/25 01:56:15;;;;;;;;;12.75;12.75;;;;;27.74;38.49;100734.78;5068257;27;45507;-54
2022/08/25 01:58:44;;;;;;;;;13.25;13.25;;;;;27.82;38.43;100757.69;5096397;27;46017;-52
2022/08/25 02:01:14;;;;;;;;;12.00;12.00;;;;;27.77;38.43;100753.03;5096118;27;45459;-50
2022/08/25 02:03:41;;;;;;;;;12.00;12.00;;;;;27.74;38.94;100746.06;5096378;27;45518;-51
2022/08/25 02:06:07;;;;;;;;;15.20;14.00;;;;;27.75;38.67;100738.47;5079478;27;45620;-53
2022/08/25 02:08:33;;;;;;;;;9.75;9.75;;;;;27.70;39.14;100742.25;5079328;27;46878;-51
2022/08/25 02:10:58;;;;;;;;;14.00;13.25;;;;;27.67;39.25;100740.09;5096195;27;45407;-50
2022/08/25 02:13:23;;;;;;;;;14.00;13.25;;;;;27.65;39.60;100728.31;5096195;27;45400;-51
2022/08/25 02:15:52;;;;;;;;;14.00;13.50;;;;;27.70;39.19;100733.78;5095972;27;45508;-51
2022/08/25 02:18:18;;;;;;;;;14.00;14.00;;;;;27.68;39.52;100718.34;5079279;27;46679;-55
2022/08/25 02:20:43;;;;;;;;;12.75;12.75;;;;;27.57;39.14;100710.22;5078923;27;45325;-53
2022/08/25 02:23:09;;;;;;;;;12.75;12.50;;;;;27.67;39.14;100725.16;5078986;27;45333;-53
2022/08/25 02:25:36;;;;;;;;;13.75;13.75;;;;;27.56;39.83;100724.63;5096125;27;45590;-56
2022/08/25 02:28:01;;;;;;;;;14.20;13.40;;;;;27.57;40.13;100717.84;5095825;27;45568;-55
2022/08/25 02:30:27;;;;;;;;;14.50;13.50;;;;;27.54;39.80;100712.84;5095439;27;45464;-55
2022/08/25 02:32:52;;;;;;;;;15.00;15.00;;;;;27.54;39.94;100705.22;5095896;27;45354;-52
2022/08/25 02:35:18;;;;;;;;;14.50;13.25;;;;;27.54;39.94;100704.41;5095651;27;45641;-50
2022/08/25 02:37:43;;;;;;;;;13.75;13.25;;;;;27.46;40.09;100706.88;5095825;27;46544;-50
2022/08/25 02:40:09;;;;;;;;;14.00;14.00;;;;;27.27;40.11;100681.78;5095080;27;45329;-51
2022/08/25 02:42:35;;;;;;;;;11.60;11.60;;;;;27.29;39.94;100701.19;5061058;27;45516;-49
2022/08/25 02:45:00;;;;;;;;;13.75;13.75;;;;;27.34;39.89;100698.22;5061383;27;45653;-51
2022/08/25 02:47:26;;;;;;;;;14.00;14.00;;;;;27.33;39.61;100699.38;5095327;27;46160;-56
2022/08/25 02:49:51;;;;;;;;;13.25;12.00;;;;;27.29;39.78;100698.38;5078216;27;45401;-51
2022/08/25 02:52:17;;;;;;;;;13.50;13.50;;;;;27.31;39.94;100696.03;5113632;27;45390;-52
2022/08/25 02:54:42;;;;;;;;;10.00;10.00;;;;;27.35;39.93;100685.78;5099127;27;45470;-54
2022/08/25 02:57:10;;;;;;;;;11.00;11.00;;;;;27.35;39.93;100685.78;5115039;27;46131;-52
2022/08/25 02:59:36;;;;;;;;;11.20;11.00;;;;;27.26;39.86;100670.88;5115863;27;45476;-52
2022/08/25 03:02:02;;;;;;;;;10.50;10.50;;;;;27.16;39.81;100658.72;5115679;27;45427;-52
2022/08/25 03:04:28;;;;;;;;;8.50;8.50;;;;;27.27;39.43;100678.16;5115782;27;45542;-53
2022/08/25 03:06:53;;;;;;;;;12.25;12.25;;;;;27.29;39.96;100684.28;5115959;27;46461;-55
2022/08/25 03:09:19;;;;;;;;;9.25;9.25;;;;;27.29;39.69;100684.28;5098095;27;45358;-50
2022/08/25 03:11:46;;;;;;;;;12.00;9.50;;;;;26.98;39.35;100642.94;5098612;27;45485;-53
2022/08/25 03:14:11;;;;;;;;;12.40;12.00;;;;;27.11;39.64;100664.50;5115655;27;45356;-50
2022/08/25 03:16:37;;;;;;;;;11.75;10.00;;;;;27.19;39.18;100694.72;5115693;27;45500;-51
2022/08/25 03:19:02;;;;;;;;;11.75;11.50;;;;;27.19;39.48;100689.06;5115634;27;45332;-55
2022/08/25 03:21:28;;;;;;;;;11.00;11.00;;;;;27.16;39.71;100684.06;5115112;27;45388;-51
2022/08/25 03:23:54;;;;;;;;;13.00;10.25;;;;;27.06;39.58;100671.13;5115603;27;45388;-51
2022/08/25 03:27:05;;;;;;;;;13.00;13.00;;;;;27.07;39.85;100666.34;5115253;27;46359;-53
2022/08/25 03:29:05;;;;;;;;;14.60;11.20;;;;;27.04;39.91;100672.59;5079591;27;45457;-52
2022/08/25 03:31:32;;;;;;;;;12.25;12.25;;;;;26.92;40.13;100667.59;5115663;27;45463;-52
2022/08/25 03:33:57;;;;;;;;;11.20;10.80;;;;;26.70;40.49;100634.69;5072462;27;45587;-55
2022/08/25 03:36:24;;;;;;;;;15.00;13.00;;;;;26.76;40.61;100655.91;5083738;27;45423;-55
2022/08/25 03:38:49;;;;;;;;;12.20;11.60;;;;;26.70;41.06;100646.81;5094751;27;45361;-52
2022/08/25 03:41:17;;;;;;;;;12.25;12.25;;;;;26.60;40.47;100607.69;5094589;27;45344;-53
2022/08/25 03:43:42;;;;;;;;;12.00;10.80;;;;;26.72;41.00;100632.41;5095215;27;45360;-55
2022/08/25 03:46:08;;;;;;;;;13.50;12.75;;;;;26.75;40.97;100640.19;5094044;27;47764;-52
2022/08/25 03:48:34;;;;;;;;;14.20;13.40;;;;;26.58;40.77;100627.72;5094607;27;45477;-54
2022/08/25 03:50:59;;;;;;;;;14.00;14.00;;;;;26.50;41.28;100614.41;5102065;27;45336;-52
2022/08/25 03:53:25;;;;;;;;;11.00;11.00;;;;;26.56;40.75;100615.13;5114083;27;45390;-54
2022/08/25 03:55:50;;;;;;;;;10.00;10.00;;;;;26.58;40.96;100615.63;5114974;27;46186;-53
2022/08/25 03:58:16;;;;;;;;;13.25;12.25;;;;;26.79;40.97;100641.22;5115199;27;45522;-53
2022/08/25 04:00:42;;;;;;;;;13.40;12.40;;;;;26.71;41.01;100639.16;5115030;27;45432;-51
2022/08/25 04:03:08;;;;;;;;;13.20;11.80;;;;;26.66;41.00;100635.38;5114992;27;45376;-50
2022/08/25 04:05:34;;;;;;;;;11.75;11.75;;;;;26.51;41.03;100636.63;5097539;27;48146;-54
2022/08/25 04:08:00;;;;;;;;;13.75;12.75;;;;;26.53;40.87;100664.44;5094560;27;46213;-51
2022/08/25 04:10:25;;;;;;;;;13.00;12.00;;;;;26.46;40.94;100645.19;5113763;27;45481;-55
2022/08/25 04:12:51;;;;;;;;;13.00;13.00;;;;;26.48;40.11;100639.25;5115487;27;45286;-54
2022/08/25 04:15:17;;;;;;;;;10.50;10.50;;;;;26.65;40.14;100656.22;5114854;27;46479;-55
2022/08/25 04:17:43;;;;;;;;;13.60;13.60;;;;;26.65;39.87;100655.38;5097246;27;45333;-53
2022/08/25 04:20:09;;;;;;;;;13.00;12.25;;;;;26.58;39.75;100644.59;5114770;27;45327;-51
2022/08/25 04:22:35;;;;;;;;;12.60;12.60;;;;;26.70;39.38;100657.22;5094412;27;45604;-52
2022/08/25 04:25:01;;;;;;;;;10.60;10.60;;;;;26.68;39.21;100660.34;5109426;27;45756;-53
2022/08/25 04:27:26;;;;;;;;;10.20;10.20;;;;;26.55;39.46;100662.13;5114103;27;45480;-52
2022/08/25 04:29:52;;;;;;;;;12.25;11.50;;;;;26.28;39.53;100626.53;5093841;27;45385;-53
2022/08/25 04:32:18;;;;;;;;;12.50;10.50;;;;;26.30;39.30;100641.13;5112687;27;45346;-53
2022/08/25 04:34:44;;;;;;;;;11.80;11.80;;;;;26.49;39.16;100674.66;5114084;27;45604;-54
2022/08/25 04:37:10;;;;;;;;;11.00;11.00;;;;;26.54;39.16;100677.34;5107224;27;45512;-54
2022/08/25 04:39:36;;;;;;;;;10.60;10.20;;;;;26.39;39.13;100647.63;5102142;27;45450;-54
2022/08/25 04:42:01;;;;;;;;;10.00;10.00;;;;;26.56;38.99;100674.22;5112795;27;45767;-55
2022/08/25 04:44:28;;;;;;;;;11.75;10.25;;;;;26.55;38.68;100672.53;5110698;27;45486;-51
2022/08/25 04:46:53;;;;;;;;;12.20;10.80;;;;;26.56;39.03;100679.84;5112754;27;45812;-53
2022/08/25 04:49:19;;;;;;;;;11.25;10.00;;;;;26.38;39.09;100652.44;5113211;27;45433;-51
2022/08/25 04:51:44;;;;;;;;;12.75;12.00;;;;;26.37;39.22;100676.06;5096133;27;45412;-52
2022/08/25 04:54:11;;;;;;;;;13.00;13.00;;;;;26.34;39.30;100689.94;5076516;27;46037;-50
2022/08/25 04:56:39;;;;;;;;;11.40;10.60;;;;;26.39;39.59;100687.00;5076357;27;45369;-50
2022/08/25 04:59:07;;;;;;;;;11.00;11.00;;;;;26.43;39.18;100685.22;5089341;27;45697;-51
2022/08/25 05:01:33;;;;;;;;;10.20;9.20;;;;;26.45;39.24;100693.31;5093504;27;45440;-54
2022/08/25 05:04:01;;;;;;;;;12.25;10.00;;;;;26.47;39.50;100694.66;5072332;28;46132;-52
2022/08/25 05:06:27;;;;;;;;;12.20;11.00;;;;;26.45;39.42;100701.75;5095678;27;45239;-57
2022/08/25 05:08:53;;;;;;;;;9.40;9.40;;;;;26.42;39.31;100700.47;5080326;27;45399;-52
2022/08/25 05:11:19;;;;;;;;;13.40;11.40;;;;;26.37;39.82;100695.75;5080260;27;45613;-52
2022/08/25 05:13:45;;;;;;;;;11.75;11.00;;;;;26.29;39.32;100681.66;5096844;27;46579;-52
2022/08/25 05:16:11;;;;;;;;;10.40;9.60;;;;;26.46;39.73;100709.09;5096601;27;45415;-50
2022/08/25 05:18:36;;;;;;;;;14.25;10.25;;;;;26.37;39.95;100704.19;5097432;27;45338;-51
2022/08/25 05:21:13;;;;;;;;;15.00;11.25;;;;;26.46;39.57;100718.34;5097397;27;45502;-51
2022/08/25 05:23:39;;;;;;;;;12.20;12.20;;;;;26.50;39.05;100730.63;5076025;28;46768;-53
2022/08/25 05:26:15;;;;;;;;;11.50;9.25;;;;;26.47;39.62;100727.63;5076313;28;45322;-52
2022/08/25 05:28:41;;;;;;;;;10.60;10.60;;;;;26.41;39.67;100726.91;5076682;28;45426;-53
2022/08/25 05:31:07;;;;;;;;;11.75;11.00;;;;;26.26;39.65;100728.13;5076252;28;45577;-56
2022/08/25 05:33:33;;;;;;;;;14.40;12.20;;;;;26.27;39.97;100731.78;5076571;28;45389;-51
2022/08/25 05:35:58;;;;;;;;;13.25;11.25;;;;;26.35;40.23;100728.19;5042231;28;45498;-55
2022/08/25 05:38:24;;;;;;;;;14.00;12.75;;;;;26.36;39.87;100721.44;5076155;28;45353;-52
2022/08/25 05:40:56;;;;;;;;;12.50;12.50;;;;;26.42;39.84;100720.16;5076490;28;45399;-53
2022/08/25 05:43:22;;;;;;;;;12.40;11.40;;;;;26.44;40.10;100722.63;5075999;28;46521;-55
2022/08/25 05:45:48;;;;;;;;;12.75;12.75;;;;;26.42;39.97;100727.75;5076143;28;45177;-52
2022/08/25 05:48:14;;;;;;;;;12.50;12.25;;;;;26.44;39.94;100728.25;5076098;28;45461;-54
2022/08/25 05:50:39;;;;;;;;;12.25;12.25;;;;;26.35;40.07;100714.13;5081635;27;45611;-56
2022/08/25 05:53:05;;;;;;;;;15.75;15.25;;;;;26.47;39.67;100728.44;5095826;27;46036;-55
2022/08/25 05:55:30;;;;;;;;;13.75;13.75;;;;;26.45;39.36;100713.03;5096484;27;45467;-55
2022/08/25 05:57:56;;;;;;;;;12.75;12.75;;;;;26.50;38.79;100725.00;5096851;27;45568;-55
2022/08/25 06:00:21;;;;;;;;;12.25;12.25;;;;;26.33;38.91;100696.72;5096679;27;45634;-56
2022/08/25 06:02:48;;;;;;;;;14.25;13.50;;;;;26.47;39.12;100720.00;5096310;27;45749;-56
2022/08/25 06:05:18;;;;;;;;;11.80;11.00;;;;;26.47;38.34;100724.81;5095978;27;45534;-53
2022/08/25 06:07:45;;;;;;;;;12.40;12.40;;;;;26.49;38.16;100723.34;5096273;27;45356;-53
2022/08/25 06:10:11;;;;;;;;;8.80;7.80;;;;;26.43;37.61;100710.56;5096844;27;45504;-54
2022/08/25 06:12:37;;;;;;;;;10.60;9.00;;;;;26.47;37.46;100716.38;5096189;27;45543;-54
2022/08/25 06:15:03;;;;;;;;;9.50;8.50;;;;;26.46;37.42;100714.72;5079325;27;45442;-55
2022/08/25 06:17:29;;;;;;;;;10.60;10.60;;;;;26.49;37.47;100712.09;5094889;27;45968;-50
2022/08/25 06:19:54;;;;;;;;;9.75;9.75;;;;;26.50;37.49;100719.38;5079810;27;45325;-52
2022/08/25 06:22:20;;;;;;;;;8.50;8.50;;;;;26.45;37.69;100715.84;5095828;27;47003;-49
2022/08/25 06:24:46;;;;;;;;;12.25;10.00;;;;;26.45;37.59;100719.50;5095712;27;45467;-49
2022/08/25 06:27:11;;;;;;;;;11.00;11.00;;;;;26.34;37.77;100695.56;5095853;27;45391;-57
2022/08/25 06:29:37;;;;;;;;;12.75;11.00;;;;;26.47;38.26;100710.75;5078891;27;45255;-50
2022/08/25 06:32:03;;;;;;;;;14.75;11.75;;;;;26.45;38.64;100715.84;5095545;27;46654;-53
2022/08/25 06:34:28;;;;;;;;;10.75;10.75;;;;;26.27;38.35;100687.59;5095521;27;45380;-50
2022/08/25 06:36:54;;;;;;;;;14.25;13.00;;;;;26.37;38.49;100711.84;5079001;27;45257;-50
2022/08/25 06:39:19;;;;;;;;;12.00;10.25;;;;;26.35;38.83;100716.94;5096255;27;45641;-50
2022/08/25 06:41:45;;;;;;;;;16.25;14.25;;;;;26.40;38.50;100728.06;5078186;27;45948;-50
2022/08/25 06:44:10;;;;;;;;;12.50;11.00;;;;;26.39;38.42;100717.97;5078758;27;45455;-53
2022/08/25 06:46:36;;;;;;;;;11.75;10.25;;;;;26.34;38.52;100718.94;5095688;27;45439;-51
2022/08/25 06:49:02;;;;;;;;;14.25;12.50;;;;;26.34;38.43;100724.56;5096047;27;45418;-51
2022/08/25 06:51:27;;;;;;;;;14.25;14.25;;;;;26.31;37.82;100721.56;5094973;27;45426;-50
2022/08/25 06:53:53;;;;;;;;;12.50;11.75;;;;;26.33;38.11;100724.88;5095564;27;45478;-50
2022/08/25 06:56:20;;;;;;;;;13.75;11.75;;;;;26.36;38.13;100727.88;5095761;27;45452;-49
2022/08/25 06:58:45;;;;;;;;;13.00;13.00;;;;;26.11;37.97;100696.38;5095448;27;45323;-51
2022/08/25 07:01:18;;;;;;;;;9.25;8.25;;;;;26.35;38.67;100729.03;5078337;27;46252;-50
2022/08/25 07:03:44;;;;;;;;;11.60;11.60;;;;;26.39;38.10;100729.22;5078696;27;45416;-54
2022/08/25 07:06:09;;;;;;;;;17.75;13.00;;;;;26.30;37.86;100706.66;5095608;27;45512;-51
2022/08/25 07:08:35;;;;;;;;;11.75;10.00;;;;;26.32;37.33;100698.72;5095571;27;45538;-51
2022/08/25 07:11:05;;;;;;;;;12.00;12.00;;;;;26.21;37.52;100698.09;5095435;27;46435;-49
2022/08/25 07:13:31;;;;;;;;;11.40;9.60;;;;;26.25;37.62;100703.97;5095255;27;45459;-49
2022/08/25 07:15:56;;;;;;;;;8.75;8.75;;;;;26.48;37.84;100729.28;5095021;27;45384;-50
2022/08/25 07:18:22;;;;;;;;;11.25;9.25;;;;;26.31;37.74;100699.03;5095190;27;45440;-52
2022/08/25 07:20:47;;;;;;;;;9.50;9.00;;;;;26.48;37.11;100732.94;5094765;27;46538;-53
2022/08/25 07:23:13;;;;;;;;;11.00;10.00;;;;;26.45;37.23;100738.34;5077712;27;45754;-57
2022/08/25 07:25:38;;;;;;;;;12.00;10.00;;;;;26.30;36.99;100717.09;5095441;27;45762;-53
2022/08/25 07:28:04;;;;;;;;;12.00;10.50;;;;;26.25;36.58;100718.03;5094892;27;45500;-58
2022/08/25 07:30:30;;;;;;;;;10.00;9.25;;;;;26.48;37.37;100740.53;5095431;27;45488;-55
2022/08/25 07:32:55;;;;;;;;;13.50;12.50;;;;;26.44;37.02;100739.50;5056718;27;45801;-53
2022/08/25 07:35:23;;;;;;;;;8.75;8.00;;;;;26.48;37.25;100740.53;5115951;27;45416;-50
2022/08/25 07:37:54;;;;;;;;;11.40;10.40;;;;;26.46;36.99;100723.97;5115313;27;45434;-55
2022/08/25 07:40:25;;;;;;;;;11.40;11.40;;;;;26.58;36.86;100734.66;5098399;27;46480;-54
2022/08/25 07:42:52;;;;;;;;;9.80;9.80;;;;;26.63;36.70;100734.50;5115167;27;45503;-56
2022/08/25 07:45:18;;;;;;;;;8.60;8.60;;;;;26.72;37.77;100733.72;5115303;27;45347;-59
2022/08/25 07:47:43;;;;;;;;;13.80;11.40;;;;;26.74;37.42;100725.78;5115440;27;45482;-59
2022/08/25 07:50:11;;;;;;;;;12.00;10.50;;;;;26.76;36.75;100731.91;5111561;27;45602;-59
2022/08/25 07:52:36;;;;;;;;;9.60;9.60;;;;;26.73;37.26;100724.13;5117021;27;45449;-58
2022/08/25 07:55:02;;;;;;;;;11.00;11.00;;;;;26.76;37.06;100729.94;5097888;27;45387;-60
2022/08/25 07:57:28;;;;;;;;;10.75;10.75;;;;;26.80;36.54;100733.75;5115323;27;45434;-60
2022/08/25 07:59:54;;;;;;;;;11.75;11.75;;;;;26.63;36.33;100697.09;5115217;27;46154;-60
2022/08/25 08:02:19;;;;;;;;;16.80;15.00;;;;;26.82;36.11;100722.19;5097828;27;45367;-57
2022/08/25 08:04:47;;;;;;;;;13.25;10.50;;;;;26.92;36.87;100727.56;5114735;27;45257;-53
2022/08/25 08:07:14;;;;;;;;;11.00;10.20;;;;;27.00;36.55;100711.03;5098064;27;45447;-56
2022/08/25 08:09:39;;;;;;;;;12.20;11.20;;;;;26.98;36.58;100688.00;5098181;27;47048;-60
2022/08/25 08:12:05;;;;;;;;;13.50;11.75;;;;;27.28;36.46;100713.63;5114598;27;45462;-61
2022/08/25 08:14:31;;;;;;;;;10.75;9.75;;;;;27.28;36.27;100707.97;5095983;27;45532;-58
2022/08/25 08:16:56;;;;;;;;;8.50;8.50;;;;;27.39;36.20;100725.41;5114961;27;45476;-60
2022/08/25 08:19:22;;;;;;;;;10.25;10.25;;;;;27.40;35.34;100725.09;5114293;27;45493;-60
2022/08/25 08:21:48;;;;;;;;;13.50;11.00;;;;;27.43;35.15;100735.69;5114521;27;45330;-59
2022/08/25 08:24:14;;;;;;;;;13.40;13.40;;;;;27.41;35.69;100725.91;5097324;27;45565;-57
2022/08/25 08:26:39;;;;;;;;;15.25;12.25;;;;;27.45;35.16;100741.84;5096265;27;45573;-60
2022/08/25 08:29:04;;;;;;;;;12.50;12.25;;;;;27.51;34.76;100759.44;5114128;27;46222;-59
2022/08/25 08:31:30;;;;;;;;;11.25;11.25;;;;;27.55;35.50;100765.22;5103726;27;46563;-60
2022/08/25 08:33:56;;;;;;;;;10.75;10.25;;;;;27.57;35.44;100740.38;5085244;27;45434;-63
2022/08/25 08:36:22;;;;;;;;;10.25;9.00;;;;;27.53;35.93;100743.00;5096070;27;45463;-63
2022/08/25 08:38:47;;;;;;;;;11.00;10.50;;;;;27.52;35.41;100747.00;5112262;27;46681;-60
2022/08/25 08:44:53;;;;;;;;;10.40;9.80;;;;;27.58;35.87;100754.16;5113683;27;45375;-59
2022/08/25 08:47:40;;;;;;;;;7.60;7.60;;;;;27.61;35.42;100749.88;5106895;27;45430;-61
2022/08/25 08:50:33;;;;;;;;;9.40;8.60;;;;;27.54;35.34;100736.22;5079794;27;46860;-61
2022/08/25 08:53:31;;;;;;;;;10.60;10.00;;;;;27.50;35.27;100749.31;5080132;27;45331;-60
2022/08/25 08:55:58;;;;;;;;;11.80;10.60;;;;;27.41;35.55;100732.38;5076217;27;45571;-60
2022/08/25 08:58:49;;;;;;;;;10.00;10.00;;;;;27.63;35.70;100766.47;5113806;27;45468;-59
2022/08/25 09:01:18;;;;;;;;;8.20;8.20;;;;;27.61;35.54;100758.31;5080891;27;45904;-61
2022/08/25 09:03:46;;;;;;;;;11.80;9.40;;;;;27.60;36.17;100756.66;5078531;27;45381;-61
2022/08/25 09:06:13;;;;;;;;;12.80;11.60;;;;;27.71;36.30;100762.81;5096879;27;45469;-60
2022/08/25 09:08:42;;;;;;;;;15.40;13.00;;;;;27.75;36.48;100758.19;5096682;27;45274;-60
2022/08/25 09:11:42;;;;;;;;;15.20;13.40;;;;;27.82;37.15;100766.16;5114038;27;46462;-60
2022/08/25 09:14:45;;;;;;;;;12.20;12.00;;;;;27.84;37.15;100763.81;5112270;27;45306;-59
2022/08/25 09:17:16;;;;;;;;;11.80;10.60;;;;;27.80;37.31;100746.72;5112689;27;45468;-61
2022/08/25 09:20:10;;;;;;;;;11.60;11.00;;;;;27.71;37.78;100732.66;5113668;27;45455;-60
2022/08/25 09:22:48;;;;;;;;;14.80;13.00;;;;;27.89;37.51;100749.56;5113683;27;45708;-60
2022/08/25 09:25:29;;;;;;;;;14.60;14.60;;;;;27.85;38.04;100738.13;5113707;27;45380;-61
2022/08/25 09:28:07;;;;;;;;;13.60;12.60;;;;;27.84;38.29;100727.16;5078832;27;45385;-60
2022/08/25 09:30:44;;;;;;;;;12.80;12.40;;;;;27.92;38.49;100743.28;5096610;27;45455;-60
2022/08/25 09:33:09;;;;;;;;;15.00;13.40;;;;;27.98;38.59;100746.75;5080863;27;45421;-60
2022/08/25 09:35:35;;;;;;;;;11.50;11.50;;;;;28.06;38.97;100754.38;5064238;27;45433;-60
2022/08/25 09:38:03;;;;;;;;;12.40;12.40;;;;;27.83;38.41;100723.53;5074778;27;45513;-60
2022/08/25 09:40:33;;;;;;;;;13.80;12.20;;;;;28.07;38.18;100760.88;5075849;27;45461;-61
2022/08/25 09:43:00;;;;;;;;;14.40;11.80;;;;;28.10;38.24;100752.56;5059365;27;47025;-61
2022/08/25 09:45:42;;;;;;;;;10.60;9.40;;;;;28.18;38.24;100756.56;5059404;27;45364;-61
2022/08/25 09:48:46;;;;;;;;;13.40;13.40;;;;;28.19;37.46;100761.03;5076348;27;45314;-61
2022/08/25 09:51:31;;;;;;;;;11.60;11.60;;;;;27.92;37.48;100714.25;5043322;28;45603;-61
2022/08/25 09:54:04;;;;;;;;;13.20;13.20;;;;;28.26;37.11;100764.22;5074623;27;46458;-60
2022/08/25 09:56:31;;;;;;;;;14.00;12.80;;;;;28.20;36.66;100751.41;5041900;28;45365;-60
2022/08/25 09:59:18;;;;;;;;;9.20;8.80;;;;;28.24;37.21;100746.81;5076096;28;45456;-60
2022/08/25 10:01:50;;;;;;;;;16.80;14.40;;;;;28.16;36.86;100738.31;5059232;28;45418;-61
2022/08/25 10:04:30;;;;;;;;;11.80;11.80;;;;;28.32;36.78;100744.31;5042640;28;46236;-60
2022/08/25 10:06:55;;;;;;;;;15.60;13.80;;;;;28.36;36.43;100746.13;5074213;28;45543;-59
2022/08/25 10:09:25;;;;;;;;;13.00;13.00;;;;;28.45;36.40;100742.44;5058978;28;45410;-60
2022/08/25 10:11:51;;;;;;;;;12.80;12.80;;;;;28.42;36.54;100729.84;5042564;28;45408;-60
2022/08/25 10:14:32;;;;;;;;;12.75;12.75;;;;;28.40;36.61;100721.69;5058946;28;45918;-60
2022/08/25 10:17:30;;;;;;;;;14.00;14.00;;;;;28.69;36.44;100741.88;5059670;28;45247;-52
2022/08/25 10:20:24;;;;;;;;;12.20;12.20;;;;;28.82;36.34;100742.88;5031839;28;45448;-53
2022/08/25 10:22:50;;;;;;;;;11.20;11.20;;;;;28.81;36.63;100722.25;5076377;28;45422;-52
2022/08/25 10:25:20;;;;;;;;;12.25;12.25;;;;;28.98;36.28;100731.88;5075158;27;45587;-51
2022/08/25 10:28:24;;;;;;;;;13.20;12.20;;;;;29.08;35.91;100703.25;5075311;28;45394;-53
2022/08/25 10:31:05;;;;;;;;;12.80;10.60;;;;;29.34;35.37;100713.56;4995510;28;45482;-50
2022/08/25 10:34:01;;;;;;;;;14.20;14.20;;;;;29.48;35.33;100706.88;5069365;28;45415;-50
2022/08/25 10:37:27;;;;;;;;;15.60;12.40;;;;;29.51;35.02;100682.75;5067840;27;46676;-52
2022/08/25 10:40:14;;;;;;;;;12.00;11.20;;;;;29.79;33.80;100705.66;5031749;28;45411;-49
2022/08/25 10:43:02;;;;;;;;;10.60;10.40;;;;;29.89;34.23;100699.56;5046774;28;45409;-49
2022/08/25 10:45:43;;;;;;;;;10.20;10.20;;;;;29.95;34.32;100696.53;5085843;27;45461;-55
2022/08/25 10:48:21;;;;;;;;;7.60;7.60;;;;;30.09;34.38;100688.63;5095397;27;46324;-50
2022/08/25 10:50:58;;;;;;;;;14.40;12.60;;;;;30.22;33.77;100695.16;5078421;27;45387;-51
2022/08/25 10:53:51;;;;;;;;;9.00;9.00;;;;;30.35;33.46;100698.84;5058060;28;45219;-53
2022/08/25 10:56:20;;;;;;;;;11.80;11.20;;;;;30.51;32.81;100692.53;5075136;28;45361;-51
2022/08/25 10:58:55;;;;;;;;;10.00;9.40;;;;;30.57;32.46;100699.63;5075155;28;46526;-50
2022/08/25 11:01:44;;;;;;;;;11.40;8.80;;;;;30.68;32.29;100698.03;5074586;28;45502;-52
2022/08/25 11:04:11;;;;;;;;;11.00;10.60;;;;;30.74;32.03;100697.81;5074117;28;45448;-56
2022/08/25 11:06:53;;;;;;;;;11.40;11.40;;;;;30.55;32.43;100671.66;5058241;28;45405;-53
2022/08/25 11:09:20;;;;;;;;;10.60;9.40;;;;;30.85;32.30;100696.16;5074372;28;46529;-53
2022/08/25 11:11:56;;;;;;;;;11.40;11.40;;;;;30.91;31.41;100686.25;5074777;28;45282;-53
2022/08/25 11:14:32;;;;;;;;;12.20;10.80;;;;;31.06;31.00;100695.22;5069663;28;45361;-53
2022/08/25 11:17:27;;;;;;;;;11.80;11.20;;;;;31.07;30.83;100696.88;5075135;28;45479;-48
2022/08/25 11:19:56;;;;;;;;;9.20;9.20;;;;;31.15;29.97;100689.44;5074712;28;45589;-49
2022/08/25 11:22:41;;;;;;;;;13.00;13.00;;;;;31.21;30.27;100690.88;5074166;28;45437;-54
2022/08/25 11:25:22;;;;;;;;;14.80;13.00;;;;;31.25;31.20;100686.13;5074553;27;45497;-52
2022/08/25 11:27:57;;;;;;;;;12.40;12.40;;;;;31.22;30.51;100650.81;5075100;28;45443;-49